Terminal Aerodrome Forecast
Issued by NWS

Home | Current Version | Previous Version | Text Only | Print | Product List | Glossary On
Versions: 1 2 3 4 5 6 7 8 9 10 11 12 13 14 15 16 17 18 19 20 21 22 23 24 25 26 27 28
000
FTUS43 KDLH 301216 AAA
TAFHYR
TAF AMD
KHYR 301216Z 3012/0112 04005KT P6SM OVC004
      TEMPO 3012/3014 OVC003
     FM301500 06006KT P6SM BKN006
     FM301900 07010KT P6SM SCT012 BKN050
     FM010100 06004KT P6SM SCT007 BKN050
     FM010600 VRB02KT 3SM BR OVC007=

USA.gov is the U.S. government's official web portal to all federal, state and local government web resources and services.